الصفحة الرئيسية
METAR-TAF:

METAR-TAF

مطار :

Munda, New Georgia, جزر سولومون

دائرة عرض: 8-19-41S, خط طول: 157-15-47E, ارتفاع: 3 متر

مراقبة الطقس الحالي

تاريخ ووقت الإصدار 16ساعات و 58 دقيقة قبل الساعة 00:00UTC
ريح 5 عقدة من الشرق
درجة الحرارة 30°درجة مئوية
الرطوبة 75%
ضغط 1010 hPa
الرؤية 10 كم أو أكثر
غيوم قليلة على ارتفاع 1800 قدم

METAR: AGGM 220000Z 09005KT 9999 FEW018 30/25 Q1010

زمن: 03:58 (16:58 UTC)

توقعات

تاريخ ووقت الإصدار 5ساعات و 48 دقيقة قبل الساعة 11:10UTC
التوقعات صالحة من22 الساعة 12 UTC إلى 23 الساعة 12 UTC
ريح 3 عقدةمن اتجاهات متغيرة
الرؤية 10 كم أو أكثر
غيوم قليلة على ارتفاع 1500 قدم
غيوم متفرقة على ارتفاع 2800 قدم
نظرية الاحتمالات 30%
بين IN و TE UTC
الرؤية: 1010 متر
غيوم متفرقة على ارتفاع 1400 قدم
غيوم قليلة على ارتفاع 1500 قدم, مزنة ركامية.
غيوم مفككة على ارتفاع 2700 قدم

TAF: AGGM 221110Z 2212/2312 VRB03KT 9999 FEW015 SCT028 PROB30 INTER 2212/2219 8000 -TSSH SCT014 FEW015CB BKN027 Q 1011 1009 1008 1010

أرصاد الطقس والتوقعات من أكثر من 4000 مطار (تقارير الطقس للمطار METAR والتنبؤ بالطقس بالمطارTAF).

المحطات المتاحة هي النقط الصفراء والحمراء على الخريطة.

حرك المؤشر فوق النقطة لمعرفة اسم المحطة.

ثم انقر لمعرفة أرصاد وتوقعات الطقس.

لتغيير الخارطة: اضغط على الأزرار الخضراء مع رمز الصليب الأسود للتكبير. على الزر الأخضر مع شرطة للتصغير، أو على الأسهم الخضراء للخرائط المجاورة.


METAR-TAF: